Shun Cheng — BBUL — position and weather

sailwx.info

Track history (hours):
 
Tides and Currents Weather Stations Pressure Air Temp Water Temp Dewpoint Dewpoint Depression Visibility Wind Speed Wind Dir Waves Ship Positions

Shun Cheng

Last reported at 2015-Mar-12 04:33 UTC. Time now 2015-Sep-04 05:50 UTC.
Position N 32°03' E 119°56'.
Warning: this ship's position is months out of date.

Length 128 m; draft 6.4 m.

Type: Cargo ship. MMSI: 412949000.

Date/timePositionNaut miles runAvg speedWind from/ knotsBaromVisibWave heightAir tempDewpointWater temp
2015-Mar-12 04:33N 32°03' E 119°56'9 8.4
2015-Mar-12 03:29N 31°57' E 120°05'9 9.5
2015-Mar-12 02:32N 31°56' E 120°15'1110.7
2015-Mar-12 01:30N 32°03' E 120°26'910.0
2015-Mar-12 00:33N 32°01' E 120°36'1111.0
2015-Mar-11 23:33N 31°60' E 120°49'1313.3
2015-Mar-11 22:33N 31°48' E 120°56'1212.2
2015-Mar-11 21:33N 31°42' E 121°09'1313.3
2015-Mar-11 20:34N 31°33' E 121°20'1211.6
2015-Mar-11 19:33N 31°26' E 121°30'1111.0
2015-Mar-11 18:34N 31°20' E 121°41'1413.8
2015-Mar-11 17:34N 31°10' E 121°52'1313.2
2015-Mar-11 16:33N 31°04' E 122°06'1414.4
2015-Mar-11 15:33N 31°02' E 122°23'  
2015-Mar-07 09:08N 34°55' E 139°26'712.5
2015-Mar-07 08:33N 34°60' E 139°32'1413.6
2015-Mar-07 07:34N 35°09' E 139°44'1211.6
2015-Mar-07 06:33N 35°21' E 139°42'6 6.3
2015-Mar-07 05:33N 35°27' E 139°40'0 0.0
2015-Mar-07 04:33N 35°27' E 139°40'0 0.0
2015-Mar-07 03:33N 35°27' E 139°40'0 0.0
2015-Mar-07 02:33N 35°27' E 139°40'0 0.0
2015-Mar-07 01:33N 35°27' E 139°40'0 0.0
2015-Mar-07 00:30N 35°27' E 139°40'0 0.0
2015-Mar-06 23:33N 35°27' E 139°40'0 0.5
2015-Mar-06 22:33N 35°27' E 139°41'2 1.8
2015-Mar-06 21:33N 35°25' E 139°42'0 0.0
2015-Mar-06 20:33N 35°25' E 139°42'0 0.0
2015-Mar-06 19:33N 35°25' E 139°42'0 0.0
2015-Mar-06 18:33N 35°25' E 139°42'0 0.0
2015-Mar-06 17:33N 35°25' E 139°42'0 0.0
2015-Mar-06 16:33N 35°25' E 139°42'0 0.0
2015-Mar-06 15:33N 35°25' E 139°42'0 0.0
2015-Mar-06 14:33N 35°25' E 139°42'0 0.0
2015-Mar-06 13:33N 35°25' E 139°42'0 0.1
2015-Mar-06 12:33N 35°26' E 139°42'9 9.4
2015-Mar-06 11:33N 35°32' E 139°51'7 6.9
2015-Mar-06 10:33N 35°37' E 139°46'0 0.0
2015-Mar-06 09:30N 35°37' E 139°46'0 0.0
2015-Mar-06 08:24N 35°37' E 139°46'0 0.0
2015-Mar-06 07:03N 35°37' E 139°46'0 0.0
2015-Mar-06 06:06N 35°37' E 139°46'0 0.0
2015-Mar-06 05:30N 35°37' E 139°46'9 8.3
2015-Mar-06 04:24N 35°30' E 139°52'1012.1
2015-Mar-06 03:34N 35°21' E 139°45'1111.3
2015-Mar-06 02:33N 35°10' E 139°46'1212.0
2015-Mar-06 01:34N 35°01' E 139°37'239 6.6
2015-Mar-04 13:07N 33°55' E 134°58'813.0
2015-Mar-04 12:28N 34°04' E 134°58'1313.2
2015-Mar-04 11:30N 34°16' E 134°58'1112.0
2015-Mar-04 10:33N 34°26' E 135°05'1312.4
2015-Mar-04 09:33N 34°35' E 135°16'5 4.9
2015-Mar-04 08:33N 34°40' E 135°14'0 0.0
2015-Mar-04 07:30N 34°40' E 135°14'0 0.0
2015-Mar-04 06:30N 34°40' E 135°14'0 0.0
2015-Mar-04 05:30N 34°40' E 135°14'0 0.0
2015-Mar-04 04:30N 34°40' E 135°14'0 0.0
2015-Mar-04 03:24N 34°40' E 135°14'1 0.6
2015-Mar-04 02:33N 34°40' E 135°15'9 9.3
2015-Mar-04 01:33N 34°39' E 135°26'0 0.1
2015-Mar-04 00:23N 34°39' E 135°26'0 0.2
2015-Mar-03 23:33N 34°39' E 135°26'9 8.9
2015-Mar-03 22:33N 34°34' E 135°17'1313.0
2015-Mar-03 21:32N 34°25' E 135°05'1212.4
2015-Mar-03 20:33N 34°14' E 134°59'1211.8
2015-Mar-03 19:33N 34°02' E 134°58'  
Track history (hours):
 
Tides and Currents Weather Stations Pressure Air Temp Water Temp Dewpoint Dewpoint Depression Visibility Wind Speed Wind Dir Waves Ship Positions

Shun Cheng

Last reported at 2015-Mar-12 04:33 UTC. Time now 2015-Sep-04 05:50 UTC.
Position N 32°03' E 119°56'.
Warning: this ship's position is months out of date.

Length 128 m; draft 6.4 m.

Type: Cargo ship. MMSI: 412949000.

Date/timePositionNaut miles runAvg speedWind from/ knotsBaromVisibWave heightAir tempDewpointWater temp
2015-Mar-12 04:33N 32°03' E 119°56'9 8.4
2015-Mar-12 03:29N 31°57' E 120°05'9 9.5
2015-Mar-12 02:32N 31°56' E 120°15'1110.7
2015-Mar-12 01:30N 32°03' E 120°26'910.0
2015-Mar-12 00:33N 32°01' E 120°36'1111.0
2015-Mar-11 23:33N 31°60' E 120°49'1313.3
2015-Mar-11 22:33N 31°48' E 120°56'1212.2
2015-Mar-11 21:33N 31°42' E 121°09'1313.3
2015-Mar-11 20:34N 31°33' E 121°20'1211.6
2015-Mar-11 19:33N 31°26' E 121°30'1111.0
2015-Mar-11 18:34N 31°20' E 121°41'1413.8
2015-Mar-11 17:34N 31°10' E 121°52'1313.2
2015-Mar-11 16:33N 31°04' E 122°06'1414.4
2015-Mar-11 15:33N 31°02' E 122°23'  
2015-Mar-07 09:08N 34°55' E 139°26'712.5
2015-Mar-07 08:33N 34°60' E 139°32'1413.6
2015-Mar-07 07:34N 35°09' E 139°44'1211.6
2015-Mar-07 06:33N 35°21' E 139°42'6 6.3
2015-Mar-07 05:33N 35°27' E 139°40'0 0.0
2015-Mar-07 04:33N 35°27' E 139°40'0 0.0
2015-Mar-07 03:33N 35°27' E 139°40'0 0.0
2015-Mar-07 02:33N 35°27' E 139°40'0 0.0
2015-Mar-07 01:33N 35°27' E 139°40'0 0.0
2015-Mar-07 00:30N 35°27' E 139°40'0 0.0
2015-Mar-06 23:33N 35°27' E 139°40'0 0.5
2015-Mar-06 22:33N 35°27' E 139°41'2 1.8
2015-Mar-06 21:33N 35°25' E 139°42'0 0.0
2015-Mar-06 20:33N 35°25' E 139°42'0 0.0
2015-Mar-06 19:33N 35°25' E 139°42'0 0.0
2015-Mar-06 18:33N 35°25' E 139°42'0 0.0
2015-Mar-06 17:33N 35°25' E 139°42'0 0.0
2015-Mar-06 16:33N 35°25' E 139°42'0 0.0
2015-Mar-06 15:33N 35°25' E 139°42'0 0.0
2015-Mar-06 14:33N 35°25' E 139°42'0 0.0
2015-Mar-06 13:33N 35°25' E 139°42'0 0.1
2015-Mar-06 12:33N 35°26' E 139°42'9 9.4
2015-Mar-06 11:33N 35°32' E 139°51'7 6.9
2015-Mar-06 10:33N 35°37' E 139°46'0 0.0
2015-Mar-06 09:30N 35°37' E 139°46'0 0.0
2015-Mar-06 08:24N 35°37' E 139°46'0 0.0
2015-Mar-06 07:03N 35°37' E 139°46'0 0.0
2015-Mar-06 06:06N 35°37' E 139°46'0 0.0
2015-Mar-06 05:30N 35°37' E 139°46'9 8.3
2015-Mar-06 04:24N 35°30' E 139°52'1012.1
2015-Mar-06 03:34N 35°21' E 139°45'1111.3
2015-Mar-06 02:33N 35°10' E 139°46'1212.0
2015-Mar-06 01:34N 35°01' E 139°37'239 6.6
2015-Mar-04 13:07N 33°55' E 134°58'813.0
2015-Mar-04 12:28N 34°04' E 134°58'1313.2
2015-Mar-04 11:30N 34°16' E 134°58'1112.0
2015-Mar-04 10:33N 34°26' E 135°05'1312.4
2015-Mar-04 09:33N 34°35' E 135°16'5 4.9
2015-Mar-04 08:33N 34°40' E 135°14'0 0.0
2015-Mar-04 07:30N 34°40' E 135°14'0 0.0
2015-Mar-04 06:30N 34°40' E 135°14'0 0.0
2015-Mar-04 05:30N 34°40' E 135°14'0 0.0
2015-Mar-04 04:30N 34°40' E 135°14'0 0.0
2015-Mar-04 03:24N 34°40' E 135°14'1 0.6
2015-Mar-04 02:33N 34°40' E 135°15'9 9.3
2015-Mar-04 01:33N 34°39' E 135°26'0 0.1
2015-Mar-04 00:23N 34°39' E 135°26'0 0.2
2015-Mar-03 23:33N 34°39' E 135°26'9 8.9
2015-Mar-03 22:33N 34°34' E 135°17'1313.0
2015-Mar-03 21:32N 34°25' E 135°05'1212.4
2015-Mar-03 20:33N 34°14' E 134°59'1211.8
2015-Mar-03 19:33N 34°02' E 134°58'  

Dump ship's entire track history